Time;durP1;ratioP1;P1;durP2;ratioP2;P2;SDS_P1;SDS_P2;PMS_P1;PMS_P2;Temp;Humidity;BMP_temperature;BMP_pressure;BME280_temperature;BME280_humidity;BME280_pressure;Samples;Min_cycle;Max_cycle;Signal;HPM_P1;HPM_P2
2023/11/24 00:02:21;;;;;;;1.05;1.00;;;;;;;5.20;81.65;98717.44;5035702;28;20054;-76
2023/11/24 00:04:50;;;;;;;1.75;1.30;;;;;;;5.22;82.04;98720.81;5036592;28;20049;-76
2023/11/24 00:07:19;;;;;;;0.73;0.73;;;;;;;5.25;82.03;98707.34;5036359;28;20048;-76
2023/11/24 00:09:49;;;;;;;0.40;0.40;;;;;;;5.25;82.01;98705.66;5035614;28;20050;-76
2023/11/24 00:12:18;;;;;;;1.40;1.30;;;;;;;5.27;82.04;98691.34;5035314;28;20045;-76
2023/11/24 00:14:48;;;;;;;2.75;1.42;;;;;;;5.28;82.39;98685.41;5035800;28;20096;-75
2023/11/24 00:17:18;;;;;;;0.40;0.40;;;;;;;5.30;82.09;98672.81;5035117;28;20048;-76
2023/11/24 00:19:47;;;;;;;1.27;1.17;;;;;;;5.29;82.33;98671.94;5035865;28;20045;-76
2023/11/24 00:22:17;;;;;;;0.65;0.65;;;;;;;5.31;82.33;98664.34;5034499;28;20079;-76
2023/11/24 00:24:51;;;;;;;1.85;1.17;;;;;;;5.27;82.39;98653.41;5034823;28;20118;-77
2023/11/24 00:27:21;;;;;;;1.80;1.70;;;;;;;5.30;82.71;98647.50;5035130;28;20046;-76
2023/11/24 00:29:51;;;;;;;0.50;0.50;;;;;;;5.30;82.34;98647.50;5036473;28;20053;-75
2023/11/24 00:32:22;;;;;;;1.00;1.00;;;;;;;5.27;82.21;98643.28;5036809;28;20087;-76
2023/11/24 00:34:51;;;;;;;1.33;1.23;;;;;;;5.30;82.39;98640.75;5038155;28;20069;-76
2023/11/24 00:37:21;;;;;;;1.45;1.35;;;;;;;5.33;82.62;98630.63;5035622;28;20103;-76
2023/11/24 00:39:50;;;;;;;1.48;1.38;;;;;;;5.35;82.55;98623.06;5035006;28;20041;-76
2023/11/24 00:42:21;;;;;;;0.50;0.50;;;;;;;5.35;82.91;98618.00;5035432;28;20088;-76
2023/11/24 00:44:50;;;;;;;1.35;0.75;;;;;;;5.34;82.80;98619.69;5034555;28;20045;-76
2023/11/24 00:47:21;;;;;;;0.67;0.67;;;;;;;5.37;82.83;98617.16;5034555;28;20053;-76
2023/11/24 00:49:50;;;;;;;1.60;0.60;;;;;;;5.38;83.15;98616.31;5034670;28;20304;-76
2023/11/24 00:52:18;;;;;;;0.63;0.63;;;;;;;5.39;82.91;98612.97;5035309;28;20037;-76
2023/11/24 00:54:47;;;;;;;1.50;1.37;;;;;;;5.46;82.85;98607.91;5035651;28;20100;-75
2023/11/24 00:57:16;;;;;;;1.63;1.53;;;;;;;5.50;83.25;98610.44;5037533;28;20329;-76
2023/11/24 00:59:46;;;;;;;0.65;0.65;;;;;;;5.56;83.14;98591.91;5037286;28;20045;-76
2023/11/24 01:02:15;;;;;;;0.93;0.90;;;;;;;5.56;83.26;98584.31;5034786;28;20037;-77
2023/11/24 01:04:47;;;;;;;0.82;0.80;;;;;;;5.48;83.26;98591.03;5037546;28;20293;-76
2023/11/24 01:07:17;;;;;;;2.33;1.80;;;;;;;5.39;83.57;98587.66;5037526;28;20384;-75
2023/11/24 01:09:46;;;;;;;0.90;0.90;;;;;;;5.39;83.71;98581.75;5036416;28;20045;-75
2023/11/24 01:12:15;;;;;;;1.40;1.30;;;;;;;5.35;83.53;98585.94;5033673;28;20561;-74
2023/11/24 01:14:43;;;;;;;0.77;0.77;;;;;;;5.29;82.87;98596.06;5033934;28;20045;-73
2023/11/24 01:17:14;;;;;;;1.00;1.00;;;;;;;5.21;82.84;98607.84;5032382;28;20420;-75
2023/11/24 01:19:43;;;;;;;3.00;1.60;;;;;;;5.14;82.91;98610.34;5034536;28;20049;-74
2023/11/24 01:22:15;;;;;;;0.95;0.95;;;;;;;5.05;82.81;98592.63;5034015;28;20095;-75
2023/11/24 01:25:27;;;;;;;0.75;0.75;;;;;;;4.96;83.12;98575.75;5032156;28;20142;-74
2023/11/24 01:27:58;;;;;;;1.35;1.25;;;;;;;4.91;82.95;98582.47;5033381;28;20045;-74
2023/11/24 01:30:27;;;;;;;0.63;0.63;;;;;;;4.93;83.60;98601.00;5032280;28;20045;-75
2023/11/24 01:32:56;;;;;;;1.42;1.33;;;;;;;4.89;83.54;98581.63;5034045;28;20045;-74
2023/11/24 01:35:25;;;;;;;1.33;1.23;;;;;;;4.89;83.42;98574.03;5034206;28;20443;-75
2023/11/24 01:37:56;;;;;;;0.63;0.63;;;;;;;4.92;83.67;98573.19;5037790;28;20045;-75
2023/11/24 01:40:26;;;;;;;3.58;1.80;;;;;;;4.78;83.50;98550.38;5036017;28;20049;-74
2023/11/24 01:42:55;;;;;;;0.97;0.97;;;;;;;4.94;83.40;98576.56;5035846;28;20056;-74
2023/11/24 01:45:24;;;;;;;2.40;1.80;;;;;;;4.96;83.68;98552.13;5037427;28;20069;-74
2023/11/24 01:47:54;;;;;;;0.93;0.93;;;;;;;4.96;83.89;98560.56;5037414;28;20423;-74
2023/11/24 01:50:24;;;;;;;1.42;1.33;;;;;;;4.95;83.78;98541.19;5019611;28;20052;-72
2023/11/24 01:52:53;;;;;;;0.75;0.75;;;;;;;5.00;84.26;98536.13;5037343;28;20119;-73
2023/11/24 01:55:26;;;;;;;1.17;1.13;;;;;;;4.98;84.39;98543.72;5036822;28;20041;-72
2023/11/24 01:57:55;;;;;;;2.03;1.30;;;;;;;4.93;84.71;98535.28;5036061;28;20038;-72
2023/11/24 02:00:26;;;;;;;0.75;0.75;;;;;;;4.91;84.83;98521.78;5036018;28;20053;-72
2023/11/24 02:02:58;;;;;;;2.40;1.80;;;;;;;4.96;85.12;98510.00;5037160;28;20411;-72
2023/11/24 02:05:28;;;;;;;1.30;1.25;;;;;;;5.03;85.36;98511.72;5037122;28;20136;-70
2023/11/24 02:07:58;;;;;;;0.98;0.98;;;;;;;5.04;85.32;98503.28;5037006;28;20067;-71
2023/11/24 02:10:29;;;;;;;1.02;1.02;;;;;;;5.04;85.54;98492.34;5035851;28;20080;-73
2023/11/24 02:12:58;;;;;;;1.70;1.60;;;;;;;5.03;85.59;98488.13;5036695;28;20058;-72
2023/11/24 02:15:27;;;;;;;11.75;2.72;;;;;;;5.05;85.51;98483.91;5035440;28;20041;-73
2023/11/24 02:17:56;;;;;;;0.85;0.85;;;;;;;5.08;85.65;98471.28;5035226;28;20037;-72
2023/11/24 02:20:27;;;;;;;0.85;0.85;;;;;;;5.12;85.78;98468.75;5035667;28;20116;-73
2023/11/24 02:22:57;;;;;;;0.88;0.88;;;;;;;5.15;85.70;98461.16;5036790;28;20132;-72
2023/11/24 02:25:26;;;;;;;1.00;1.00;;;;;;;5.18;85.77;98445.97;5036429;28;20056;-72
2023/11/24 02:27:55;;;;;;;2.28;2.13;;;;;;;5.21;85.82;98435.88;5018857;28;20049;-73
2023/11/24 02:30:24;;;;;;;1.17;1.08;;;;;;;5.28;85.91;98432.50;5035446;28;20037;-73
2023/11/24 02:32:53;;;;;;;3.13;1.25;;;;;;;5.30;86.06;98424.94;5035058;28;20045;-73
2023/11/24 02:35:22;;;;;;;0.82;0.82;;;;;;;5.34;86.68;98414.81;5036254;28;20061;-71
2023/11/24 02:37:51;;;;;;;2.40;1.87;;;;;;;5.37;85.83;98412.25;5036083;28;20053;-71
2023/11/24 02:40:22;;;;;;;1.03;1.03;;;;;;;5.40;85.64;98402.13;5036217;28;20749;-71
2023/11/24 02:42:51;;;;;;;0.63;0.63;;;;;;;5.47;85.34;98402.16;5035465;28;20458;-72
2023/11/24 02:45:19;;;;;;;2.13;1.87;;;;;;;5.49;86.10;98390.34;5036128;28;20081;-71
2023/11/24 02:47:49;;;;;;;1.80;1.60;;;;;;;5.50;86.08;98386.94;5036215;28;20045;-72
2023/11/24 02:50:19;;;;;;;0.68;0.68;;;;;;;5.59;86.23;98381.88;5036043;28;20052;-73
2023/11/24 02:52:48;;;;;;;1.35;1.25;;;;;;;5.67;85.90;98364.97;5035263;28;20042;-73
2023/11/24 02:55:18;;;;;;;0.93;0.93;;;;;;;5.73;86.13;98354.84;5034421;28;20056;-72
2023/11/24 02:57:49;;;;;;;4.57;1.80;;;;;;;5.79;86.39;98344.69;5034924;28;20053;-72
2023/11/24 03:00:20;;;;;;;1.35;1.25;;;;;;;5.86;86.00;98341.31;5034624;28;20057;-71
2023/11/24 03:02:49;;;;;;;1.77;0.65;;;;;;;5.90;85.80;98337.97;5034607;28;20507;-71
2023/11/24 03:05:19;;;;;;;0.83;0.83;;;;;;;5.91;85.82;98324.44;5035662;28;20049;-73
2023/11/24 03:07:48;;;;;;;0.82;0.82;;;;;;;5.97;85.97;98324.44;5035662;28;20279;-73
2023/11/24 03:10:17;;;;;;;0.50;0.50;;;;;;;5.98;85.89;98321.03;5034296;28;20040;-73
2023/11/24 03:12:46;;;;;;;0.70;0.70;;;;;;;6.03;85.62;98309.19;5034725;28;20483;-71
2023/11/24 03:15:16;;;;;;;0.90;0.90;;;;;;;6.07;85.84;98300.72;5035523;28;20111;-71
2023/11/24 03:17:46;;;;;;;1.30;1.23;;;;;;;6.12;85.57;98303.25;5035425;28;20049;-73
2023/11/24 03:20:15;;;;;;;0.22;0.22;;;;;;;6.18;85.67;98288.00;5035362;28;20056;-72
2023/11/24 03:22:44;;;;;;;0.25;0.25;;;;;;;6.21;85.15;98293.06;5035697;28;20038;-71
2023/11/24 03:25:13;;;;;;;0.32;0.32;;;;;;;6.27;84.72;98291.31;5035506;28;20049;-71
2023/11/24 03:27:42;;;;;;;0.30;0.30;;;;;;;6.32;84.62;98284.53;5034183;28;20049;-73
2023/11/24 03:30:12;;;;;;;0.30;0.30;;;;;;;6.36;84.02;98278.59;5033976;28;20042;-72
2023/11/24 03:32:42;;;;;;;;;;;;;;;6.41;83.76;98276.88;5035828;28;20275;-74
2023/11/24 03:35:11;;;;;;;0.63;0.63;;;;;;;6.41;84.26;98266.75;5035444;28;19921;-73
2023/11/24 03:37:40;;;;;;;1.27;0.73;;;;;;;6.41;84.40;98256.59;5033656;28;20041;-73
2023/11/24 03:40:11;;;;;;;1.48;1.10;;;;;;;6.43;84.08;98262.50;5033671;28;20065;-73
2023/11/24 03:42:40;;;;;;;0.43;0.43;;;;;;;6.44;84.47;98261.66;5033833;28;20057;-72
2023/11/24 03:45:10;;;;;;;0.60;0.60;;;;;;;6.42;83.83;98258.31;5034064;28;20436;-72
2023/11/24 03:47:39;;;;;;;0.60;0.60;;;;;;;6.43;84.74;98254.91;5034999;28;20091;-73
2023/11/24 03:50:10;;;;;;;0.30;0.30;;;;;;;6.45;84.21;98243.09;5034741;28;20041;-72
2023/11/24 03:52:39;;;;;;;1.30;0.85;;;;;;;6.47;84.44;98251.50;5034164;28;20057;-71
2023/11/24 03:55:11;;;;;;;0.52;0.52;;;;;;;6.53;84.43;98246.38;5034566;28;20054;-71
2023/11/24 03:57:41;;;;;;;0.43;0.43;;;;;;;6.58;84.54;98249.72;5034285;28;20049;-72
2023/11/24 04:00:10;;;;;;;0.40;0.40;;;;;;;6.58;83.97;98248.88;5033728;28;20508;-71
2023/11/24 04:02:41;;;;;;;0.30;0.30;;;;;;;6.60;83.92;98237.03;5034711;28;20555;-73
2023/11/24 04:05:13;;;;;;;0.90;0.90;;;;;;;6.60;83.94;98232.81;5033357;28;20132;-72
2023/11/24 04:07:42;;;;;;;0.40;0.40;;;;;;;6.25;84.14;98153.72;5034521;28;20045;-72
2023/11/24 04:10:11;;;;;;;0.30;0.30;;;;;;;6.68;83.58;98215.84;5033301;28;20037;-73
2023/11/24 04:12:40;;;;;;;0.40;0.40;;;;;;;6.70;83.70;98210.75;5034350;28;20095;-72
2023/11/24 04:15:10;;;;;;;0.63;0.63;;;;;;;6.67;83.68;98198.94;5034316;28;20475;-72
2023/11/24 04:17:39;;;;;;;0.82;0.82;;;;;;;6.64;84.14;98193.91;5034169;28;20072;-71
2023/11/24 04:20:09;;;;;;;0.50;0.47;;;;;;;6.61;83.96;98193.09;5034326;28;20046;-72
2023/11/24 04:22:40;;;;;;;0.50;0.50;;;;;;;6.60;84.37;98182.09;5034352;28;20040;-72
2023/11/24 04:25:10;;;;;;;0.40;0.40;;;;;;;6.63;84.60;98177.03;5032982;28;20148;-73
2023/11/24 04:27:39;;;;;;;0.50;0.50;;;;;;;6.60;84.53;98182.09;5034454;28;20072;-72
2023/11/24 04:30:09;;;;;;;0.30;0.30;;;;;;;6.59;84.17;98164.41;5032879;28;20057;-73
2023/11/24 04:32:38;;;;;;;0.40;0.40;;;;;;;6.65;84.56;98165.16;5033211;28;20050;-71
2023/11/24 04:35:08;;;;;;;0.43;0.43;;;;;;;6.67;84.95;98168.53;5034169;28;20115;-72
2023/11/24 04:37:39;;;;;;;0.60;0.60;;;;;;;6.68;85.16;98165.16;5034275;28;20060;-72
2023/11/24 04:40:09;;;;;;;0.63;0.63;;;;;;;6.68;85.36;98167.69;5034724;28;20052;-72
2023/11/24 04:42:38;;;;;;;;;;;;;;;6.71;85.65;98170.19;5034472;28;20124;-74
2023/11/24 04:45:11;;;;;;;0.68;0.68;;;;;;;6.72;84.82;98160.88;5034099;28;19928;-72
2023/11/24 04:47:40;;;;;;;0.32;0.32;;;;;;;6.77;85.11;98163.38;5033990;28;20057;-72
2023/11/24 04:50:09;;;;;;;0.50;0.50;;;;;;;6.81;85.41;98175.16;5033962;28;20055;-73
2023/11/24 04:52:40;;;;;;;0.28;0.28;;;;;;;6.83;85.97;98184.44;5033873;28;20468;-72
2023/11/24 04:55:12;;;;;;;0.25;0.25;;;;;;;6.86;85.68;98183.56;5033853;28;20054;-72
2023/11/24 04:57:41;;;;;;;1.30;1.15;;;;;;;6.88;86.15;98181.84;5034069;28;20442;-72
2023/11/24 05:00:13;;;;;;;0.27;0.27;;;;;;;6.73;86.33;98153.28;5033772;28;20456;-72
2023/11/24 05:02:42;;;;;;;0.52;0.52;;;;;;;6.92;85.84;98193.63;5033728;28;20045;-71
2023/11/24 05:05:11;;;;;;;0.30;0.30;;;;;;;6.94;86.08;98199.53;5033974;28;20045;-71
2023/11/24 05:07:41;;;;;;;1.13;1.02;;;;;;;6.91;86.32;98214.78;5033679;28;20076;-71
2023/11/24 05:10:10;;;;;;;0.40;0.40;;;;;;;6.55;87.44;98163.56;5033370;28;20057;-72
2023/11/24 05:12:39;;;;;;;0.43;0.43;;;;;;;6.96;87.78;98236.69;5033560;28;20049;-72
2023/11/24 05:15:08;;;;;;;1.30;0.73;;;;;;;6.97;88.21;98255.28;5033827;28;20516;-71
2023/11/24 05:17:38;;;;;;;0.95;0.82;;;;;;;6.83;87.65;98234.31;5033467;28;20041;-71
2023/11/24 05:20:09;;;;;;;1.52;1.35;;;;;;;6.91;88.12;98242.69;5033482;28;20052;-70
2023/11/24 05:22:42;;;;;;;0.20;0.20;;;;;;;6.89;88.04;98259.59;5033886;28;20474;-72
2023/11/24 05:25:11;;;;;;;0.20;0.20;;;;;;;6.84;87.55;98256.28;5033488;28;20404;-71
2023/11/24 05:27:40;;;;;;;0.47;0.47;;;;;;;6.75;87.44;98232.69;5033447;28;20039;-72
2023/11/24 05:30:11;;;;;;;0.73;0.73;;;;;;;6.87;86.84;98262.13;5033396;28;20049;-71
2023/11/24 05:32:40;;;;;;;0.40;0.40;;;;;;;6.83;86.89;98254.59;5033668;28;20136;-72
2023/11/24 05:35:09;;;;;;;0.30;0.30;;;;;;;6.84;86.56;98276.56;5033398;28;20488;-73
2023/11/24 05:37:38;;;;;;;0.60;0.60;;;;;;;6.82;86.04;98273.16;5033646;28;20041;-71
2023/11/24 05:40:12;;;;;;;1.63;1.20;;;;;;;6.83;86.32;98274.88;5033310;28;20492;-72
2023/11/24 05:42:41;;;;;;;0.40;0.40;;;;;;;6.81;85.82;98268.97;5033366;28;20052;-72
2023/11/24 05:45:12;;;;;;;0.40;0.40;;;;;;;6.79;85.57;98268.16;5032307;28;20116;-72
2023/11/24 05:47:41;;;;;;;0.22;0.22;;;;;;;6.68;86.16;98251.31;5033397;28;20060;-71
2023/11/24 05:50:17;;;;;;;0.37;0.37;;;;;;;6.79;85.60;98263.06;5033507;28;20076;-72
2023/11/24 05:52:46;;;;;;;2.17;0.63;;;;;;;6.79;85.05;98260.53;5033515;28;20823;-72
2023/11/24 05:55:16;;;;;;;0.30;0.30;;;;;;;6.75;85.20;98255.50;5032956;28;20215;-71
2023/11/24 05:57:45;;;;;;;1.33;1.23;;;;;;;6.77;85.68;98239.44;5033460;28;20492;-71
2023/11/24 06:00:18;;;;;;;0.55;0.55;;;;;;;6.75;84.82;98232.69;5033114;28;20034;-72
2023/11/24 06:02:47;;;;;;;0.30;0.30;;;;;;;6.74;84.66;98233.50;5033170;28;20052;-72
2023/11/24 06:05:16;;;;;;;0.30;0.30;;;;;;;6.71;85.36;98220.88;5033245;28;20531;-72
2023/11/24 06:07:45;;;;;;;;;;;;;;;6.70;84.60;98234.41;5033503;28;20045;-72
2023/11/24 06:10:20;;;;;;;0.30;0.30;;;;;;;6.68;84.78;98225.97;5032250;28;20008;-71
2023/11/24 06:12:48;;;;;;;0.30;0.30;;;;;;;6.54;84.44;98207.53;5033280;28;20132;-72
2023/11/24 06:15:18;;;;;;;0.40;0.40;;;;;;;6.61;83.41;98214.22;5033215;28;20043;-72
2023/11/24 06:17:48;;;;;;;0.35;0.35;;;;;;;6.61;83.98;98208.31;5032933;28;20293;-71
2023/11/24 06:20:17;;;;;;;0.30;0.30;;;;;;;6.47;84.07;98188.16;5031859;28;20403;-72
2023/11/24 06:22:47;;;;;;;0.20;0.20;;;;;;;6.50;83.67;98197.44;5037007;28;20549;-71
2023/11/24 06:25:16;;;;;;;0.22;0.22;;;;;;;6.40;84.05;98178.94;5036937;28;20163;-71
2023/11/24 06:27:46;;;;;;;0.32;0.32;;;;;;;6.45;83.88;98202.53;5036772;28;20507;-72
2023/11/24 06:30:15;;;;;;;0.68;0.68;;;;;;;6.42;83.90;98187.34;5036489;28;20526;-72
2023/11/24 06:32:44;;;;;;;0.20;0.20;;;;;;;6.37;84.52;98194.16;5037131;28;20104;-71
2023/11/24 06:35:15;;;;;;;0.20;0.20;;;;;;;6.35;84.02;98206.00;5036671;28;20494;-71
2023/11/24 06:37:44;;;;;;;0.20;0.20;;;;;;;6.35;84.21;98221.19;5036519;28;20049;-72
2023/11/24 06:40:13;;;;;;;0.30;0.30;;;;;;;6.35;84.69;98236.41;5036324;28;20048;-71
2023/11/24 06:42:42;;;;;;;;;;;;;;;6.32;83.83;98236.41;5037272;28;20140;-72
2023/11/24 06:45:13;;;;;;;0.20;0.20;;;;;;;6.30;84.44;98230.53;5036186;28;19967;-71
2023/11/24 06:47:43;;;;;;;0.40;0.40;;;;;;;6.27;84.21;98243.19;5042629;28;20034;-71
2023/11/24 06:50:12;;;;;;;0.43;0.43;;;;;;;6.23;84.72;98243.22;5053071;28;20458;-72
2023/11/24 06:52:42;;;;;;;0.22;0.22;;;;;;;6.18;85.59;98233.13;5054696;28;20073;-71
2023/11/24 06:55:12;;;;;;;0.50;0.50;;;;;;;6.18;85.26;98238.19;5055880;28;20079;-71
2023/11/24 06:57:41;;;;;;;0.30;0.30;;;;;;;6.15;85.44;98240.75;5054713;28;20120;-72
2023/11/24 07:00:17;;;;;;;0.20;0.20;;;;;;;6.11;85.59;98235.72;5055774;28;20095;-72
2023/11/24 07:02:48;;;;;;;0.20;0.20;;;;;;;6.15;85.99;98260.16;5054908;28;20410;-71
2023/11/24 07:05:18;;;;;;;0.30;0.30;;;;;;;6.12;86.02;98253.41;5054869;28;20111;-70
2023/11/24 07:07:47;;;;;;;0.30;0.30;;;;;;;6.11;85.88;98249.22;5056039;28;20063;-71
2023/11/24 07:10:16;;;;;;;0.20;0.20;;;;;;;6.12;86.14;98255.94;5046633;28;20033;-70
2023/11/24 07:12:45;;;;;;;0.20;0.20;;;;;;;6.11;85.73;98261.88;5055635;28;20048;-71
2023/11/24 07:15:15;;;;;;;0.30;0.30;;;;;;;6.09;85.70;98258.53;5053510;28;20143;-69
2023/11/24 07:17:44;;;;;;;0.30;0.30;;;;;;;6.04;86.00;98245.03;5054356;28;20041;-71
2023/11/24 07:20:13;;;;;;;0.50;0.50;;;;;;;5.94;85.16;98240.88;5055451;28;20033;-71
2023/11/24 07:22:42;;;;;;;0.30;0.30;;;;;;;6.03;85.06;98253.47;5055668;28;20495;-71
2023/11/24 07:25:13;;;;;;;0.20;0.20;;;;;;;6.04;84.83;98260.25;5055616;28;20037;-71
2023/11/24 07:27:43;;;;;;;0.20;0.20;;;;;;;5.85;85.86;98220.69;5054395;28;20067;-71
2023/11/24 07:30:12;;;;;;;0.20;0.20;;;;;;;5.97;85.92;98243.41;5043940;28;20041;-71
2023/11/24 07:32:42;;;;;;;;;;;;;;;6.00;85.65;98243.38;5053709;28;20041;-70
2023/11/24 07:35:13;;;;;;;0.30;0.30;;;;;;;5.98;85.72;98235.78;5055539;28;19921;-71
2023/11/24 07:37:43;;;;;;;0.38;0.38;;;;;;;5.98;86.21;98240.00;5055505;28;20132;-71
2023/11/24 07:40:15;;;;;;;0.43;0.43;;;;;;;6.00;86.26;98228.16;5053849;28;20037;-70
2023/11/24 07:42:46;;;;;;;6.75;1.50;;;;;;;5.99;86.83;98226.50;5055059;28;20050;-70
2023/11/24 07:45:15;;;;;;;0.50;0.50;;;;;;;5.97;86.34;98220.63;5055241;28;20372;-71
2023/11/24 07:47:46;;;;;;;0.30;0.30;;;;;;;5.96;86.75;98221.44;5054898;28;20132;-71
2023/11/24 07:50:15;;;;;;;0.30;0.30;;;;;;;5.98;86.96;98229.88;5053244;28;20056;-72
2023/11/24 07:52:46;;;;;;;0.30;0.30;;;;;;;5.98;86.87;98240.84;5053951;28;20045;-71
2023/11/24 07:55:15;;;;;;;1.23;1.15;;;;;;;5.98;87.56;98240.00;5054757;28;20403;-71
2023/11/24 07:57:44;;;;;;;0.35;0.35;;;;;;;5.94;87.71;98243.41;5055055;28;20140;-71
2023/11/24 08:00:14;;;;;;;0.57;0.57;;;;;;;5.97;87.82;98249.28;5053609;28;20128;-70
2023/11/24 08:02:43;;;;;;;0.70;0.70;;;;;;;5.99;87.45;98241.69;5054974;28;20068;-71
2023/11/24 08:05:13;;;;;;;0.30;0.30;;;;;;;6.00;87.82;98240.84;5054037;28;20060;-72
2023/11/24 08:07:44;;;;;;;0.20;0.20;;;;;;;6.01;88.37;98233.25;5054911;28;20483;-71
2023/11/24 08:10:13;;;;;;;0.30;0.30;;;;;;;6.04;88.08;98232.38;5047348;28;20434;-70
2023/11/24 08:12:41;;;;;;;0.28;0.28;;;;;;;6.04;88.65;98229.84;5034881;28;20041;-71
2023/11/24 08:15:12;;;;;;;0.30;0.30;;;;;;;6.05;88.42;98226.44;5034349;28;20116;-70
2023/11/24 08:17:43;;;;;;;0.95;0.95;;;;;;;6.09;88.48;98230.66;5034510;28;20332;-71
2023/11/24 08:20:15;;;;;;;0.40;0.40;;;;;;;6.13;89.31;98237.38;5053241;28;20049;-69
2023/11/24 08:22:43;;;;;;;0.40;0.40;;;;;;;6.17;89.09;98223.84;5054475;28;20124;-70
2023/11/24 08:25:12;;;;;;;0.20;0.20;;;;;;;6.20;89.13;98206.09;5054581;28;20045;-70
2023/11/24 08:27:41;;;;;;;0.70;0.70;;;;;;;6.14;89.42;98206.16;5054177;28;20037;-71
2023/11/24 08:30:11;;;;;;;0.50;0.50;;;;;;;6.22;89.60;98204.38;5053203;28;20048;-70
2023/11/24 08:32:41;;;;;;;0.30;0.30;;;;;;;6.26;89.57;98195.94;5054373;28;20041;-69
2023/11/24 08:35:15;;;;;;;0.30;0.30;;;;;;;6.31;89.74;98209.38;5054396;28;20079;-69
2023/11/24 08:37:44;;;;;;;0.30;0.30;;;;;;;6.36;89.92;98214.44;5054086;28;20037;-69
2023/11/24 08:40:16;;;;;;;0.80;0.70;;;;;;;6.41;89.89;98231.25;5052964;28;20064;-70
2023/11/24 08:42:47;;;;;;;0.50;0.50;;;;;;;6.41;89.57;98230.41;5054331;28;20486;-70
2023/11/24 08:45:17;;;;;;;0.40;0.40;;;;;;;6.42;89.53;98238.03;5054000;28;20469;-72
2023/11/24 08:47:49;;;;;;;1.17;0.88;;;;;;;6.43;88.80;98247.28;5054180;28;20045;-72
2023/11/24 08:50:19;;;;;;;0.40;0.40;;;;;;;6.45;89.47;98248.16;5052114;28;20033;-70
2023/11/24 08:52:49;;;;;;;0.30;0.30;;;;;;;6.40;88.69;98244.81;5054124;28;20049;-72
2023/11/24 08:55:17;;;;;;;;;;;;;;;6.54;89.03;98249.75;5053049;28;20041;-70
2023/11/24 08:57:46;;;;;;;0.30;0.30;;;;;;;6.58;88.86;98239.59;5053904;28;19921;-72
2023/11/24 09:00:16;;;;;;;0.32;0.32;;;;;;;6.62;88.50;98215.88;5052802;28;20041;-73
2023/11/24 09:02:46;;;;;;;0.30;0.30;;;;;;;6.64;88.54;98209.13;5050696;28;20041;-73
2023/11/24 09:05:15;;;;;;;0.40;0.40;;;;;;;6.72;87.91;98240.31;5052459;28;20045;-73
2023/11/24 09:07:45;;;;;;;0.40;0.40;;;;;;;6.79;88.16;98242.78;5051484;28;20376;-71
2023/11/24 09:10:14;;;;;;;0.30;0.30;;;;;;;6.82;87.94;98237.69;5053746;28;20119;-69
2023/11/24 09:12:44;;;;;;;0.38;0.38;;;;;;;6.87;87.38;98230.88;5045335;28;20045;-70
2023/11/24 09:15:15;;;;;;;0.20;0.20;;;;;;;6.86;86.82;98236.81;5049045;28;20041;-71
2023/11/24 09:17:43;;;;;;;0.30;0.30;;;;;;;6.86;86.46;98235.13;5053449;28;20041;-70
2023/11/24 09:20:16;;;;;;;0.40;0.40;;;;;;;6.92;86.38;98239.28;5052967;28;20044;-71
2023/11/24 09:26:46;;;;;;;0.70;0.70;;;;;;;6.95;85.45;98222.34;4962078;28;20047;-73
2023/11/24 09:29:15;;;;;;;0.80;0.80;;;;;;;6.98;85.36;98208.81;4953461;29;20083;-73
2023/11/24 09:36:31;;;;;;;1.63;1.17;;;;;;;7.12;84.16;98196.81;4877727;29;20061;-73
2023/11/24 09:39:00;;;;;;;0.43;0.43;;;;;;;7.14;83.81;98184.94;4877736;29;20049;-72
2023/11/24 09:41:33;;;;;;;1.00;0.85;;;;;;;7.19;83.84;98173.91;4877411;29;20045;-73
2023/11/24 09:44:03;;;;;;;0.20;0.20;;;;;;;7.08;83.42;98157.13;4877489;29;20056;-72
2023/11/24 09:46:32;;;;;;;0.30;0.30;;;;;;;7.20;82.65;98173.03;4881183;29;20051;-73
2023/11/24 09:49:17;;;;;;;0.45;0.45;;;;;;;7.20;82.40;98165.41;4872569;29;20055;-73
2023/11/24 09:51:45;;;;;;;1.00;1.00;;;;;;;7.25;82.66;98157.75;4892275;29;20045;-73
2023/11/24 09:54:17;;;;;;;0.40;0.40;;;;;;;7.42;82.60;98138.06;4895018;29;20416;-74
2023/11/24 09:56:46;;;;;;;1.15;0.73;;;;;;;7.40;82.22;98129.66;4946690;28;20046;-73
2023/11/24 09:59:17;;;;;;;0.45;0.45;;;;;;;7.59;82.36;98128.53;4995659;28;20073;-72
2023/11/24 10:01:49;;;;;;;0.50;0.50;;;;;;;7.75;81.68;98140.16;5008951;28;20050;-73
2023/11/24 10:04:18;;;;;;;1.08;0.60;;;;;;;7.96;80.97;98149.16;5050261;28;20049;-72
2023/11/24 10:06:49;;;;;;;0.30;0.30;;;;;;;8.04;81.58;98147.31;5056900;28;20075;-73
2023/11/24 10:09:25;;;;;;;0.57;0.57;;;;;;;8.22;80.61;98148.75;5057066;28;20063;-72
2023/11/24 10:11:54;;;;;;;0.30;0.30;;;;;;;8.29;79.17;98127.50;5055703;28;20107;-73
2023/11/24 10:14:24;;;;;;;0.27;0.27;;;;;;;8.58;78.98;98125.28;5056770;28;20494;-73
2023/11/24 10:16:54;;;;;;;0.38;0.38;;;;;;;8.79;78.42;98129.97;5056685;28;20049;-74
2023/11/24 10:19:27;;;;;;;0.40;0.40;;;;;;;8.68;76.52;98119.19;5055588;28;20037;-72
2023/11/24 10:21:56;;;;;;;0.40;0.40;;;;;;;8.65;76.99;98124.31;5055495;28;20086;-72
2023/11/24 10:24:25;;;;;;;0.40;0.40;;;;;;;8.72;76.53;98113.16;5056583;28;20056;-72
2023/11/24 10:26:54;;;;;;;1.35;1.25;;;;;;;8.63;75.62;98108.25;5056778;28;20041;-74
2023/11/24 10:29:30;;;;;;;0.93;0.93;;;;;;;8.52;75.62;98099.97;5056545;28;20049;-72
2023/11/24 10:32:00;;;;;;;0.43;0.43;;;;;;;8.08;75.87;98053.28;5055435;28;20045;-72
2023/11/24 10:34:29;;;;;;;2.28;0.82;;;;;;;8.28;75.87;98100.41;5056306;28;20037;-72
2023/11/24 10:36:58;;;;;;;0.50;0.50;;;;;;;8.21;75.46;98099.63;5056263;28;20044;-73
2023/11/24 10:39:30;;;;;;;0.30;0.30;;;;;;;8.06;75.13;98080.41;5056322;28;20079;-74
2023/11/24 10:42:00;;;;;;;0.30;0.30;;;;;;;8.07;75.40;98091.41;5048289;28;20052;-72
2023/11/24 10:44:31;;;;;;;0.30;0.30;;;;;;;8.03;74.94;98088.09;5039394;28;20450;-74
2023/11/24 10:47:04;;;;;;;0.50;0.50;;;;;;;8.04;75.58;98082.13;5050751;28;20040;-72
2023/11/24 10:49:40;;;;;;;0.40;0.40;;;;;;;7.96;76.02;98068.72;5054766;28;20053;-72
2023/11/24 10:52:22;;;;;;;0.50;0.50;;;;;;;8.03;76.69;98080.47;5041827;28;20075;-73
2023/11/24 10:55:00;;;;;;;0.30;0.30;;;;;;;8.02;77.02;98068.63;5053925;28;20060;-73
2023/11/24 10:57:31;;;;;;;0.88;0.85;;;;;;;7.95;77.27;98051.81;5055991;28;20124;-73
2023/11/24 11:00:04;;;;;;;0.28;0.28;;;;;;;7.94;77.72;98049.31;5052757;28;20049;-74
2023/11/24 11:02:37;;;;;;;0.80;0.80;;;;;;;7.90;76.85;98045.13;5035973;28;20048;-74
2023/11/24 11:05:17;;;;;;;0.35;0.35;;;;;;;7.87;77.68;98043.47;5035892;28;20124;-75
2023/11/24 11:07:54;;;;;;;0.40;0.40;;;;;;;7.87;77.73;98033.31;5035864;28;20122;-75
2023/11/24 11:10:28;;;;;;;0.30;0.30;;;;;;;7.73;78.39;98020.00;5036727;28;20049;-74
2023/11/24 11:13:00;;;;;;;0.22;0.22;;;;;;;7.66;77.78;98010.81;5055990;28;20045;-74
2023/11/24 11:15:32;;;;;;;0.30;0.30;;;;;;;7.53;78.16;98001.72;5056017;28;20454;-75
2023/11/24 11:18:10;;;;;;;0.45;0.45;;;;;;;7.57;78.58;98008.41;5055932;28;20499;-75
2023/11/24 11:20:40;;;;;;;1.02;1.02;;;;;;;7.56;78.26;98006.72;5055113;28;20399;-75
2023/11/24 11:23:14;;;;;;;0.50;0.50;;;;;;;7.49;78.77;98005.16;5055420;28;20052;-76
2023/11/24 11:25:46;;;;;;;0.28;0.28;;;;;;;7.50;78.69;98006.84;5054268;28;20407;-74
2023/11/24 11:28:46;;;;;;;0.47;0.47;;;;;;;7.43;78.55;98000.19;5055913;28;20057;-74
2023/11/24 11:31:38;;;;;;;0.38;0.38;;;;;;;7.41;79.66;97997.66;5045825;28;20045;-74
2023/11/24 11:34:16;;;;;;;0.50;0.50;;;;;;;7.17;78.84;97949.00;5042359;28;20043;-75
2023/11/24 11:36:51;;;;;;;0.22;0.22;;;;;;;7.38;79.19;97977.41;5055305;28;20041;-75
2023/11/24 11:39:21;;;;;;;0.30;0.30;;;;;;;7.39;78.68;97960.47;5055079;28;20052;-75
2023/11/24 11:41:52;;;;;;;0.30;0.30;;;;;;;7.32;78.32;97946.22;5040407;28;20038;-75
2023/11/24 11:44:33;;;;;;;0.28;0.28;;;;;;;7.44;78.59;97961.25;5035501;28;20045;-76
2023/11/24 11:47:17;;;;;;;1.65;0.95;;;;;;;7.34;78.85;97939.44;5035299;28;20049;-75
2023/11/24 11:49:51;;;;;;;0.70;0.70;;;;;;;7.41;78.28;97941.00;5035445;28;20068;-75
2023/11/24 11:52:23;;;;;;;0.30;0.30;;;;;;;7.47;77.43;97935.81;5043856;28;20472;-75
2023/11/24 11:54:55;;;;;;;0.60;0.60;;;;;;;7.49;76.87;97931.56;5035087;28;20143;-75
2023/11/24 11:57:27;;;;;;;0.85;0.85;;;;;;;7.56;76.86;97928.03;5033905;28;20488;-75
2023/11/24 11:59:56;;;;;;;0.28;0.28;;;;;;;7.61;76.01;97936.41;5035110;28;20045;-77
2023/11/24 12:02:27;;;;;;;0.30;0.30;;;;;;;7.55;76.24;97913.69;5053923;28;20040;-76
2023/11/24 12:04:56;;;;;;;0.52;0.52;;;;;;;7.98;74.50;97929.00;5037630;28;20122;-76
2023/11/24 12:07:26;;;;;;;0.60;0.60;;;;;;;7.98;74.18;97913.75;5033597;28;20061;-76
2023/11/24 12:09:55;;;;;;;0.40;0.38;;;;;;;8.06;73.27;97912.72;5034555;28;20518;-76